Time,TemperatureF,DewpointF,PressureIn,WindDirection,WindDirectionDegrees,WindSpeedMPH,WindSpeedGustMPH,Humidity,HourlyPrecipIn,Conditions,Clouds,dailyrainin,SoftwareType,DateUTC
2013-03-31 00:02:00,52.1,44.4,30.09,NE,45,0.0,0.0,75,0.00,,---,0.00,VWS V14.01,2013-03-31 07:02:00,
2013-03-31 00:07:00,52.3,46.0,30.09,NE,46,0.0,0.0,79,0.00,,---,0.00,VWS V14.01,2013-03-31 07:07:00,
2013-03-31 00:12:00,52.6,46.9,30.09,NE,45,0.0,3.0,81,0.00,,---,0.00,VWS V14.01,2013-03-31 07:12:00,
2013-03-31 00:17:00,52.7,47.4,30.09,NE,46,0.0,0.0,82,0.00,,---,0.00,VWS V14.01,2013-03-31 07:17:00,
2013-03-31 00:22:00,52.6,47.3,30.08,NE,45,0.0,0.0,82,0.00,,---,0.00,VWS V14.01,2013-03-31 07:22:00,
2013-03-31 00:27:00,52.4,47.1,30.08,NE,46,0.0,0.0,82,0.00,,---,0.00,VWS V14.01,2013-03-31 07:27:00,
2013-03-31 00:32:00,52.1,46.5,30.08,NE,46,0.0,0.0,81,0.00,,---,0.00,VWS V14.01,2013-03-31 07:32:00,
2013-03-31 00:37:00,51.7,45.7,30.08,NE,46,0.0,0.0,80,0.00,,---,0.00,VWS V14.01,2013-03-31 07:37:00,
2013-03-31 00:42:00,51.3,44.7,30.08,NE,46,0.0,0.0,78,0.00,,---,0.00,VWS V14.01,2013-03-31 07:42:00,
2013-03-31 00:47:00,51.0,44.0,30.08,NE,46,0.0,0.0,77,0.00,,---,0.00,VWS V14.01,2013-03-31 07:47:00,
2013-03-31 00:52:00,50.9,43.6,30.08,NE,46,0.0,0.0,76,0.00,,---,0.00,VWS V14.01,2013-03-31 07:52:00,
2013-03-31 00:57:00,50.5,42.9,30.08,NE,45,0.0,0.0,75,0.00,,---,0.00,VWS V14.01,2013-03-31 07:57:00,
2013-03-31 01:02:00,50.3,42.7,30.08,NE,45,0.0,0.0,75,0.00,,---,0.00,VWS V14.01,2013-03-31 08:02:00,
2013-03-31 01:07:00,50.1,42.5,30.08,NE,45,0.0,2.0,75,0.00,,---,0.00,VWS V14.01,2013-03-31 08:07:00,
2013-03-31 01:12:00,50.1,42.8,30.08,NE,46,0.0,2.0,76,0.00,,---,0.00,VWS V14.01,2013-03-31 08:12:00,
2013-03-31 01:17:00,50.0,42.7,30.08,NE,46,0.0,0.0,76,0.00,,---,0.00,VWS V14.01,2013-03-31 08:17:00,
2013-03-31 01:22:00,50.0,42.7,30.09,NE,46,0.0,0.0,76,0.00,,---,0.00,VWS V14.01,2013-03-31 08:22:00,
2013-03-31 01:27:00,50.0,42.7,30.09,NE,46,0.0,0.0,76,0.00,,---,0.00,VWS V14.01,2013-03-31 08:27:00,
2013-03-31 01:32:00,50.0,43.1,30.09,NE,46,0.0,0.0,77,0.00,,---,0.00,VWS V14.01,2013-03-31 08:32:00,
2013-03-31 01:37:00,50.0,43.4,30.10,NE,46,0.0,0.0,78,0.00,,---,0.00,VWS V14.01,2013-03-31 08:37:00,
2013-03-31 01:42:00,49.9,43.7,30.09,NE,46,0.0,0.0,79,0.00,,---,0.00,VWS V14.01,2013-03-31 08:42:00,
2013-03-31 01:47:00,49.9,43.7,30.09,NE,46,0.0,0.0,79,0.00,,---,0.00,VWS V14.01,2013-03-31 08:47:00,
2013-03-31 01:52:00,49.8,43.6,30.09,NE,46,0.0,0.0,79,0.00,,---,0.00,VWS V14.01,2013-03-31 08:52:00,
2013-03-31 01:57:00,49.7,43.8,30.09,NE,46,0.0,0.0,80,0.00,,---,0.00,VWS V14.01,2013-03-31 08:57:00,
2013-03-31 02:02:00,49.7,43.8,30.09,NE,46,0.0,0.0,80,0.00,,---,0.00,VWS V14.01,2013-03-31 09:02:00,
2013-03-31 02:07:00,49.6,43.7,30.09,NE,45,0.0,0.0,80,0.00,,---,0.00,VWS V14.01,2013-03-31 09:07:00,
2013-03-31 02:12:00,49.5,43.6,30.09,NE,46,0.0,0.0,80,0.00,,---,0.00,VWS V14.01,2013-03-31 09:12:00,
2013-03-31 02:17:00,49.3,43.4,30.09,NE,46,0.0,0.0,80,0.00,,---,0.00,VWS V14.01,2013-03-31 09:17:00,
2013-03-31 02:22:00,49.2,43.3,30.09,NE,46,0.0,3.0,80,0.00,,---,0.00,VWS V14.01,2013-03-31 09:22:00,
2013-03-31 02:27:00,49.2,43.0,30.09,NE,46,0.0,3.0,79,0.00,,---,0.00,VWS V14.01,2013-03-31 09:27:00,
2013-03-31 02:32:00,49.1,42.5,30.09,NE,45,0.0,0.0,78,0.00,,---,0.00,VWS V14.01,2013-03-31 09:32:00,
2013-03-31 02:37:00,49.2,42.6,30.08,NE,46,2.0,3.0,78,0.00,,---,0.00,VWS V14.01,2013-03-31 09:37:00,
2013-03-31 02:43:00,49.3,42.7,30.08,NE,46,0.0,3.0,78,0.00,,---,0.00,VWS V14.01,2013-03-31 09:43:00,
2013-03-31 02:48:00,49.5,43.3,30.07,NE,46,0.0,0.0,79,0.00,,---,0.00,VWS V14.01,2013-03-31 09:48:00,
2013-03-31 02:53:00,49.8,43.6,30.08,NE,46,0.0,0.0,79,0.00,,---,0.00,VWS V14.01,2013-03-31 09:53:00,
2013-03-31 02:58:00,49.9,43.3,30.07,NE,46,0.0,0.0,78,0.00,,---,0.00,VWS V14.01,2013-03-31 09:58:00,
2013-03-31 03:03:00,49.8,43.2,30.07,NE,46,0.0,0.0,78,0.00,,---,0.00,VWS V14.01,2013-03-31 10:03:00,
2013-03-31 03:08:00,49.8,43.2,30.07,NE,46,0.0,0.0,78,0.00,,---,0.00,VWS V14.01,2013-03-31 10:08:00,
2013-03-31 03:13:00,49.9,43.7,30.07,NE,46,0.0,0.0,79,0.00,,---,0.00,VWS V14.01,2013-03-31 10:13:00,
2013-03-31 03:18:00,50.0,44.1,30.07,NE,46,0.0,0.0,80,0.00,,---,0.00,VWS V14.01,2013-03-31 10:18:00,
2013-03-31 03:23:00,50.2,44.0,30.07,NE,46,0.0,0.0,79,0.00,,---,0.00,VWS V14.01,2013-03-31 10:23:00,
2013-03-31 03:28:00,50.2,44.0,30.07,NE,46,0.0,0.0,79,0.00,,---,0.00,VWS V14.01,2013-03-31 10:28:00,
2013-03-31 03:33:00,50.1,43.5,30.07,NE,46,0.0,0.0,78,0.00,,---,0.00,VWS V14.01,2013-03-31 10:33:00,
2013-03-31 03:38:00,50.0,43.4,30.07,NE,45,0.0,0.0,78,0.00,,---,0.00,VWS V14.01,2013-03-31 10:38:00,
2013-03-31 03:43:00,50.0,43.4,30.07,NE,46,2.0,3.0,78,0.00,,---,0.00,VWS V14.01,2013-03-31 10:43:00,
2013-03-31 03:48:00,50.3,44.0,30.07,NE,45,0.0,3.0,79,0.00,,---,0.00,VWS V14.01,2013-03-31 10:48:00,
2013-03-31 03:53:00,50.5,44.6,30.06,NE,46,3.0,4.0,80,0.00,,---,0.00,VWS V14.01,2013-03-31 10:53:00,
2013-03-31 03:58:00,50.7,45.1,30.07,NE,46,0.0,4.0,81,0.00,,---,0.00,VWS V14.01,2013-03-31 10:58:00,
2013-03-31 04:03:00,51.0,45.7,30.07,NE,46,0.0,0.0,82,0.00,,---,0.00,VWS V14.01,2013-03-31 11:03:00,
2013-03-31 04:08:00,51.0,44.7,30.07,NE,46,0.0,2.0,79,0.00,,---,0.00,VWS V14.01,2013-03-31 11:08:00,
2013-03-31 04:13:00,50.7,44.4,30.08,NE,46,0.0,2.0,79,0.00,,---,0.00,VWS V14.01,2013-03-31 11:13:00,
2013-03-31 04:18:00,50.6,44.3,30.08,NE,46,0.0,0.0,79,0.00,,---,0.00,VWS V14.01,2013-03-31 11:18:00,
2013-03-31 04:23:00,50.7,44.8,30.07,NE,46,0.0,0.0,80,0.00,,---,0.00,VWS V14.01,2013-03-31 11:23:00,
2013-03-31 04:28:00,50.8,44.9,30.07,NE,46,1.0,3.0,80,0.00,,---,0.00,VWS V14.01,2013-03-31 11:28:00,
2013-03-31 04:33:00,51.0,45.1,30.07,NE,49,2.0,4.0,80,0.00,,---,0.00,VWS V14.01,2013-03-31 11:33:00,
2013-03-31 04:38:00,51.2,45.2,30.07,NE,48,0.0,4.0,80,0.00,,---,0.00,VWS V14.01,2013-03-31 11:38:00,
2013-03-31 04:43:00,51.3,45.7,30.07,NE,49,0.0,4.0,81,0.00,,---,0.00,VWS V14.01,2013-03-31 11:43:00,
2013-03-31 04:48:00,51.4,45.8,30.07,NE,48,0.0,0.0,81,0.00,,---,0.00,VWS V14.01,2013-03-31 11:48:00,
2013-03-31 04:53:00,51.3,45.7,30.07,NE,48,0.0,0.0,81,0.00,,---,0.00,VWS V14.01,2013-03-31 11:53:00,
2013-03-31 04:58:00,51.3,45.3,30.07,NE,49,0.0,0.0,80,0.00,,---,0.00,VWS V14.01,2013-03-31 11:58:00,
2013-03-31 05:03:00,51.2,45.2,30.07,NE,49,0.0,3.0,80,0.00,,---,0.00,VWS V14.01,2013-03-31 12:03:00,
2013-03-31 05:08:00,51.2,45.2,30.07,NE,49,0.0,3.0,80,0.00,,---,0.00,VWS V14.01,2013-03-31 12:08:00,
2013-03-31 05:13:00,51.3,45.3,30.07,NE,48,3.0,4.0,80,0.00,,---,0.00,VWS V14.01,2013-03-31 12:13:00,
2013-03-31 05:18:00,51.2,45.2,30.07,NE,48,0.0,3.0,80,0.00,,---,0.00,VWS V14.01,2013-03-31 12:18:00,
2013-03-31 05:23:00,51.2,45.2,30.06,NE,53,3.0,4.0,80,0.00,,---,0.00,VWS V14.01,2013-03-31 12:23:00,
2013-03-31 05:28:00,51.2,44.9,30.07,NE,52,0.0,4.0,79,0.00,,---,0.00,VWS V14.01,2013-03-31 12:28:00,
2013-03-31 05:33:00,51.1,44.8,30.07,NE,53,0.0,0.0,79,0.00,,---,0.00,VWS V14.01,2013-03-31 12:33:00,
2013-03-31 05:38:00,50.9,44.6,30.07,NE,53,0.0,0.0,79,0.00,,---,0.00,VWS V14.01,2013-03-31 12:38:00,
2013-03-31 05:43:00,50.5,44.2,30.07,NE,53,0.0,0.0,79,0.00,,---,0.00,VWS V14.01,2013-03-31 12:43:00,
2013-03-31 05:48:00,50.1,44.2,30.07,NE,53,0.0,2.0,80,0.00,,---,0.00,VWS V14.01,2013-03-31 12:48:00,
2013-03-31 05:53:00,49.8,43.9,30.08,NE,52,0.0,2.0,80,0.00,,---,0.00,VWS V14.01,2013-03-31 12:53:00,
2013-03-31 05:58:00,49.7,44.1,30.08,NE,53,0.0,2.0,81,0.00,,---,0.00,VWS V14.01,2013-03-31 12:58:00,
2013-03-31 06:03:00,49.5,43.9,30.09,NE,52,0.0,0.0,81,0.00,,---,0.00,VWS V14.01,2013-03-31 13:03:00,
2013-03-31 06:08:00,49.5,43.9,30.09,NE,53,0.0,0.0,81,0.00,,---,0.00,VWS V14.01,2013-03-31 13:08:00,
2013-03-31 06:13:00,49.4,43.8,30.09,NE,54,0.0,0.0,81,0.00,,---,0.00,VWS V14.01,2013-03-31 13:13:00,
2013-03-31 06:18:00,49.4,43.8,30.09,NE,53,1.0,2.0,81,0.00,,---,0.00,VWS V14.01,2013-03-31 13:18:00,
2013-03-31 06:23:00,49.5,44.2,30.09,NE,53,1.0,3.0,82,0.00,,---,0.00,VWS V14.01,2013-03-31 13:23:00,
2013-03-31 06:28:00,49.6,44.3,30.09,NE,53,0.0,3.0,82,0.00,,---,0.00,VWS V14.01,2013-03-31 13:28:00,
2013-03-31 06:33:00,49.8,44.5,30.10,NE,53,2.0,3.0,82,0.00,,---,0.00,VWS V14.01,2013-03-31 13:33:00,
2013-03-31 06:38:00,49.9,44.6,30.10,NE,52,0.0,3.0,82,0.00,,---,0.00,VWS V14.01,2013-03-31 13:38:00,
2013-03-31 06:43:00,50.0,44.7,30.10,NE,52,0.0,3.0,82,0.00,,---,0.00,VWS V14.01,2013-03-31 13:43:00,
2013-03-31 06:48:00,50.1,44.8,30.10,NE,53,0.0,0.0,82,0.00,,---,0.00,VWS V14.01,2013-03-31 13:48:00,
2013-03-31 06:53:00,50.2,44.9,30.10,NE,53,0.0,0.0,82,0.00,,---,0.00,VWS V14.01,2013-03-31 13:53:00,
2013-03-31 06:58:00,50.3,45.0,30.10,NE,53,0.0,0.0,82,0.00,,---,0.00,VWS V14.01,2013-03-31 13:58:00,
2013-03-31 07:03:00,50.4,45.1,30.10,NE,53,0.0,0.0,82,0.00,,---,0.00,VWS V14.01,2013-03-31 14:03:00,
2013-03-31 07:08:00,50.5,44.9,30.10,NE,55,4.0,5.0,81,0.00,,---,0.00,VWS V14.01,2013-03-31 14:08:00,
2013-03-31 07:13:00,50.6,45.0,30.10,NE,55,3.0,5.0,81,0.00,,---,0.00,VWS V14.01,2013-03-31 14:13:00,
2013-03-31 07:18:00,50.7,44.8,30.10,NE,56,0.0,4.0,80,0.00,,---,0.00,VWS V14.01,2013-03-31 14:18:00,
2013-03-31 07:23:00,50.8,44.9,30.10,NE,56,3.0,4.0,80,0.00,,---,0.00,VWS V14.01,2013-03-31 14:23:00,
2013-03-31 07:28:00,50.8,44.9,30.10,ENE,57,4.0,4.0,80,0.00,,---,0.00,VWS V14.01,2013-03-31 14:28:00,
2013-03-31 07:33:00,51.0,44.7,30.10,NE,56,5.0,5.0,79,0.00,,---,0.00,VWS V14.01,2013-03-31 14:33:00,
2013-03-31 07:38:00,51.3,45.0,30.10,ENE,57,0.0,5.0,79,0.00,,---,0.00,VWS V14.01,2013-03-31 14:38:00,
2013-03-31 07:43:00,51.5,45.2,30.10,ENE,57,0.0,5.0,79,0.00,,---,0.00,VWS V14.01,2013-03-31 14:43:00,
2013-03-31 07:48:00,52.0,45.7,30.09,NE,56,1.0,3.0,79,0.00,,---,0.00,VWS V14.01,2013-03-31 14:48:00,
2013-03-31 07:53:00,52.4,45.8,30.10,ENE,71,4.0,6.0,78,0.00,,---,0.00,VWS V14.01,2013-03-31 14:53:00,
2013-03-31 07:58:00,52.8,45.8,30.10,ENE,69,3.0,6.0,77,0.00,,---,0.00,VWS V14.01,2013-03-31 14:58:00,
2013-03-31 08:03:00,53.2,45.8,30.10,ENE,69,1.0,4.0,76,0.00,,---,0.00,VWS V14.01,2013-03-31 15:03:00,
2013-03-31 08:08:00,53.5,45.4,30.10,ENE,69,0.0,4.0,74,0.00,,---,0.00,VWS V14.01,2013-03-31 15:08:00,
2013-03-31 08:13:00,53.9,45.8,30.10,ENE,68,0.0,4.0,74,0.00,,---,0.00,VWS V14.01,2013-03-31 15:13:00,
2013-03-31 08:18:00,54.2,45.8,30.10,ENE,70,0.0,3.0,73,0.00,,---,0.00,VWS V14.01,2013-03-31 15:18:00,
2013-03-31 08:23:00,54.6,45.8,30.10,ENE,69,0.0,3.0,72,0.00,,---,0.00,VWS V14.01,2013-03-31 15:23:00,
2013-03-31 08:28:00,55.0,45.8,30.10,ENE,69,0.0,3.0,71,0.00,,---,0.00,VWS V14.01,2013-03-31 15:28:00,
2013-03-31 08:33:00,55.7,46.5,30.10,ENE,69,0.0,0.0,71,0.00,,---,0.00,VWS V14.01,2013-03-31 15:33:00,
2013-03-31 08:38:00,56.3,47.0,30.10,ENE,69,0.0,0.0,71,0.00,,---,0.00,VWS V14.01,2013-03-31 15:38:00,
2013-03-31 08:43:00,57.0,47.7,30.10,ENE,69,0.0,0.0,71,0.00,,---,0.00,VWS V14.01,2013-03-31 15:43:00,
2013-03-31 08:48:00,57.5,47.8,30.09,ENE,69,0.0,0.0,70,0.00,,---,0.00,VWS V14.01,2013-03-31 15:48:00,
2013-03-31 08:53:00,58.0,47.9,30.09,ENE,71,1.0,3.0,69,0.00,,---,0.00,VWS V14.01,2013-03-31 15:53:00,
2013-03-31 08:58:00,58.5,48.8,30.09,ENE,71,0.0,3.0,70,0.00,,---,0.00,VWS V14.01,2013-03-31 15:58:00,
2013-03-31 09:03:00,59.0,48.9,30.09,ENE,71,0.0,3.0,69,0.00,,---,0.00,VWS V14.01,2013-03-31 16:03:00,
2013-03-31 09:09:00,59.0,49.2,30.09,ENE,72,0.0,3.0,70,0.00,,---,0.00,VWS V14.01,2013-03-31 16:09:00,
2013-03-31 09:14:00,59.4,49.6,30.09,ENE,74,0.0,3.0,70,0.00,,---,0.00,VWS V14.01,2013-03-31 16:14:00,
2013-03-31 09:19:00,60.2,49.6,30.09,ENE,74,1.0,3.0,68,0.00,,---,0.00,VWS V14.01,2013-03-31 16:19:00,
2013-03-31 09:24:00,61.4,50.8,30.09,ENE,74,0.0,3.0,68,0.00,,---,0.00,VWS V14.01,2013-03-31 16:24:00,
2013-03-31 09:29:00,62.6,51.9,30.09,East,81,3.0,4.0,68,0.00,,---,0.00,VWS V14.01,2013-03-31 16:29:00,
2013-03-31 09:34:00,63.3,51.3,30.09,SSW,213,2.0,4.0,65,0.00,,---,0.00,VWS V14.01,2013-03-31 16:34:00,
2013-03-31 09:39:00,63.8,51.8,30.09,SW,225,0.0,7.0,65,0.00,,---,0.00,VWS V14.01,2013-03-31 16:39:00,
2013-03-31 09:44:00,64.0,52.0,30.09,SW,222,5.0,7.0,65,0.00,,---,0.00,VWS V14.01,2013-03-31 16:44:00,
2013-03-31 09:49:00,63.9,51.9,30.09,SW,234,5.0,6.0,65,0.00,,---,0.00,VWS V14.01,2013-03-31 16:49:00,
2013-03-31 09:54:00,63.6,52.0,30.09,SW,227,5.0,7.0,66,0.00,,---,0.00,VWS V14.01,2013-03-31 16:54:00,
2013-03-31 09:59:00,63.5,52.4,30.10,SW,233,6.0,9.0,67,0.00,,---,0.00,VWS V14.01,2013-03-31 16:59:00,
2013-03-31 10:04:00,63.2,52.1,30.10,WSW,258,4.0,9.0,67,0.00,,---,0.00,VWS V14.01,2013-03-31 17:04:00,
2013-03-31 10:09:00,63.3,52.6,30.10,SW,233,3.0,9.0,68,0.00,,---,0.00,VWS V14.01,2013-03-31 17:09:00,
2013-03-31 10:14:00,63.9,53.5,30.11,WSW,249,4.0,9.0,69,0.00,,---,0.00,VWS V14.01,2013-03-31 17:14:00,
2013-03-31 10:19:00,64.5,53.3,30.11,SW,225,4.0,10.0,67,0.00,,---,0.00,VWS V14.01,2013-03-31 17:19:00,
2013-03-31 10:24:00,64.8,53.2,30.10,SW,236,3.0,10.0,66,0.00,,---,0.00,VWS V14.01,2013-03-31 17:24:00,
2013-03-31 10:29:00,65.0,53.4,30.11,SW,215,5.0,10.0,66,0.00,,---,0.00,VWS V14.01,2013-03-31 17:29:00,
2013-03-31 10:34:00,65.0,53.8,30.11,SW,225,5.0,6.0,67,0.00,,---,0.00,VWS V14.01,2013-03-31 17:34:00,
2013-03-31 10:39:00,65.0,53.4,30.11,SW,232,2.0,7.0,66,0.00,,---,0.00,VWS V14.01,2013-03-31 17:39:00,
2013-03-31 10:44:00,64.5,52.9,30.11,SSW,194,4.0,7.0,66,0.00,,---,0.00,VWS V14.01,2013-03-31 17:44:00,
2013-03-31 10:49:00,64.5,52.9,30.11,SW,225,1.0,5.0,66,0.00,,---,0.00,VWS V14.01,2013-03-31 17:49:00,
2013-03-31 10:54:00,64.4,52.8,30.11,SW,225,1.0,5.0,66,0.00,,---,0.00,VWS V14.01,2013-03-31 17:54:00,
2013-03-31 10:59:00,64.5,53.3,30.11,West,271,3.0,6.0,67,0.00,,---,0.00,VWS V14.01,2013-03-31 17:59:00,
2013-03-31 11:04:00,64.7,53.5,30.11,WSW,253,0.0,5.0,67,0.00,,---,0.00,VWS V14.01,2013-03-31 18:04:00,
2013-03-31 11:09:00,64.9,53.7,30.11,SW,235,0.0,5.0,67,0.00,,---,0.00,VWS V14.01,2013-03-31 18:09:00,
2013-03-31 11:14:00,65.2,53.2,30.11,WSW,240,2.0,5.0,65,0.00,,---,0.00,VWS V14.01,2013-03-31 18:14:00,
2013-03-31 11:19:00,65.6,53.5,30.11,South,183,0.0,6.0,65,0.00,,---,0.00,VWS V14.01,2013-03-31 18:19:00,
2013-03-31 11:24:00,65.8,52.4,30.11,South,183,0.0,6.0,62,0.00,,---,0.00,VWS V14.01,2013-03-31 18:24:00,
2013-03-31 11:29:00,66.0,53.5,30.11,SW,235,5.0,6.0,64,0.00,,---,0.00,VWS V14.01,2013-03-31 18:29:00,
2013-03-31 11:34:00,65.9,53.8,30.10,West,268,4.0,5.0,65,0.00,,---,0.00,VWS V14.01,2013-03-31 18:34:00,
2013-03-31 11:39:00,65.9,53.4,30.11,SW,236,0.0,6.0,64,0.00,,---,0.00,VWS V14.01,2013-03-31 18:39:00,
2013-03-31 11:44:00,65.9,53.0,30.10,SW,224,0.0,6.0,63,0.00,,---,0.00,VWS V14.01,2013-03-31 18:44:00,
2013-03-31 11:49:00,66.2,52.8,30.10,SW,227,2.0,2.0,62,0.00,,---,0.00,VWS V14.01,2013-03-31 18:49:00,
2013-03-31 11:54:00,67.2,54.2,30.10,South,180,3.0,6.0,63,0.00,,---,0.00,VWS V14.01,2013-03-31 18:54:00,
2013-03-31 11:59:00,67.7,53.3,30.10,SSW,195,1.0,7.0,60,0.00,,---,0.00,VWS V14.01,2013-03-31 18:59:00,
2013-03-31 12:04:00,68.0,53.6,30.10,SW,225,0.0,7.0,60,0.00,,---,0.00,VWS V14.01,2013-03-31 19:04:00,
2013-03-31 12:09:00,68.0,55.4,30.10,SSW,213,5.0,9.0,64,0.00,,---,0.00,VWS V14.01,2013-03-31 19:09:00,
2013-03-31 12:14:00,68.3,54.8,30.10,South,175,3.0,9.0,62,0.00,,---,0.00,VWS V14.01,2013-03-31 19:14:00,
2013-03-31 12:19:00,68.7,54.7,30.10,SW,215,3.0,6.0,61,0.00,,---,0.00,VWS V14.01,2013-03-31 19:19:00,
2013-03-31 12:24:00,68.5,54.5,30.10,SW,225,3.0,7.0,61,0.00,,---,0.00,VWS V14.01,2013-03-31 19:24:00,
2013-03-31 12:29:00,67.9,54.4,30.09,SSW,207,3.0,9.0,62,0.00,,---,0.00,VWS V14.01,2013-03-31 19:29:00,
2013-03-31 12:34:00,67.9,55.3,30.09,SSW,194,9.0,9.0,64,0.00,,---,0.00,VWS V14.01,2013-03-31 19:34:00,
2013-03-31 12:39:00,67.8,55.2,30.09,SW,220,0.0,9.0,64,0.00,,---,0.00,VWS V14.01,2013-03-31 19:39:00,
2013-03-31 12:44:00,68.2,55.6,30.09,SW,219,5.0,9.0,64,0.00,,---,0.00,VWS V14.01,2013-03-31 19:44:00,
2013-03-31 12:49:00,68.1,54.6,30.09,West,264,4.0,9.0,62,0.00,,---,0.00,VWS V14.01,2013-03-31 19:49:00,
2013-03-31 12:54:00,68.0,55.4,30.09,SW,215,4.0,9.0,64,0.00,,---,0.00,VWS V14.01,2013-03-31 19:54:00,
2013-03-31 12:59:00,68.6,55.5,30.08,SW,234,5.0,9.0,63,0.00,,---,0.00,VWS V14.01,2013-03-31 19:59:00,
2013-03-31 13:04:00,68.5,55.4,30.08,SW,230,9.0,12.0,63,0.00,,---,0.00,VWS V14.01,2013-03-31 20:04:00,
2013-03-31 13:09:00,68.4,55.8,30.08,SW,225,5.0,12.0,64,0.00,,---,0.00,VWS V14.01,2013-03-31 20:09:00,
2013-03-31 13:14:00,68.4,55.3,30.08,SSW,209,6.0,12.0,63,0.00,,---,0.00,VWS V14.01,2013-03-31 20:14:00,
2013-03-31 13:19:00,68.3,55.2,30.08,WSW,240,3.0,5.0,63,0.00,,---,0.00,VWS V14.01,2013-03-31 20:19:00,
2013-03-31 13:24:00,68.3,54.8,30.08,SW,224,5.0,7.0,62,0.00,,---,0.00,VWS V14.01,2013-03-31 20:24:00,
2013-03-31 13:30:00,68.4,55.3,30.07,SW,226,3.0,9.0,63,0.00,,---,0.00,VWS V14.01,2013-03-31 20:30:00,
2013-03-31 13:35:00,68.7,55.6,30.07,SW,224,2.0,7.0,63,0.00,,---,0.00,VWS V14.01,2013-03-31 20:35:00,
2013-03-31 13:40:00,69.0,55.9,30.07,West,272,6.0,9.0,63,0.00,,---,0.00,VWS V14.01,2013-03-31 20:40:00,
2013-03-31 13:45:00,69.0,54.5,30.07,SSW,206,6.0,12.0,60,0.00,,---,0.00,VWS V14.01,2013-03-31 20:45:00,
2013-03-31 13:50:00,69.0,54.5,30.06,SW,232,5.0,11.0,60,0.00,,---,0.00,VWS V14.01,2013-03-31 20:50:00,
2013-03-31 13:55:00,69.4,54.5,30.06,South,184,3.0,12.0,59,0.00,,---,0.00,VWS V14.01,2013-03-31 20:55:00,
2013-03-31 14:00:00,69.9,55.4,30.06,SW,216,3.0,12.0,60,0.00,,---,0.00,VWS V14.01,2013-03-31 21:00:00,
2013-03-31 14:05:00,70.0,54.6,30.06,WSW,255,5.0,9.0,58,0.00,,---,0.00,VWS V14.01,2013-03-31 21:05:00,
2013-03-31 14:10:00,69.7,54.3,30.06,SSW,205,7.0,10.0,58,0.00,,---,0.00,VWS V14.01,2013-03-31 21:10:00,
2013-03-31 14:15:00,69.9,56.3,30.05,SW,227,0.0,10.0,62,0.00,,---,0.00,VWS V14.01,2013-03-31 21:15:00,
2013-03-31 14:20:00,69.9,55.4,30.05,SW,228,10.0,12.0,60,0.00,,---,0.00,VWS V14.01,2013-03-31 21:20:00,
2013-03-31 14:25:00,69.0,55.5,30.05,SSW,192,5.0,12.0,62,0.00,,---,0.00,VWS V14.01,2013-03-31 21:25:00,
2013-03-31 14:30:00,68.7,55.2,30.05,SW,226,9.0,12.0,62,0.00,,---,0.00,VWS V14.01,2013-03-31 21:30:00,
2013-03-31 14:35:00,68.8,55.3,30.05,SW,227,12.0,12.0,62,0.00,,---,0.00,VWS V14.01,2013-03-31 21:35:00,
2013-03-31 14:40:00,68.8,55.3,30.05,SW,218,12.0,13.0,62,0.00,,---,0.00,VWS V14.01,2013-03-31 21:40:00,
2013-03-31 14:45:00,68.6,55.1,30.05,SW,235,7.0,13.0,62,0.00,,---,0.00,VWS V14.01,2013-03-31 21:45:00,
2013-03-31 14:50:00,68.1,55.0,30.05,SW,225,11.0,13.0,63,0.00,,---,0.00,VWS V14.01,2013-03-31 21:50:00,
2013-03-31 14:55:00,68.0,55.0,30.05,West,261,9.0,13.0,63,0.00,,---,0.00,VWS V14.01,2013-03-31 21:55:00,
2013-03-31 15:00:00,68.0,55.0,30.05,SSW,213,5.0,13.0,63,0.00,,---,0.00,VWS V14.01,2013-03-31 22:00:00,
2013-03-31 15:05:00,67.9,54.8,30.05,WSW,242,7.0,13.0,63,0.00,,---,0.00,VWS V14.01,2013-03-31 22:05:00,
2013-03-31 15:10:00,67.5,54.5,30.05,WSW,237,8.0,13.0,63,0.00,,---,0.00,VWS V14.01,2013-03-31 22:10:00,
2013-03-31 15:15:00,66.8,55.1,30.05,SW,220,4.0,13.0,66,0.00,,---,0.00,VWS V14.01,2013-03-31 22:15:00,
2013-03-31 15:20:00,66.6,54.5,30.05,WSW,237,5.0,11.0,65,0.00,,---,0.00,VWS V14.01,2013-03-31 22:20:00,
2013-03-31 15:25:00,66.3,54.6,30.05,WSW,250,6.0,11.0,66,0.00,,---,0.00,VWS V14.01,2013-03-31 22:25:00,
2013-03-31 15:30:00,66.0,53.9,30.05,WSW,250,4.0,11.0,65,0.00,,---,0.00,VWS V14.01,2013-03-31 22:30:00,
2013-03-31 15:35:00,65.4,54.2,30.05,SW,236,4.0,13.0,67,0.00,,---,0.00,VWS V14.01,2013-03-31 22:35:00,
2013-03-31 15:40:00,64.9,53.7,30.05,SW,234,6.0,13.0,67,0.00,,---,0.00,VWS V14.01,2013-03-31 22:40:00,
2013-03-31 15:45:00,64.1,53.3,30.05,WSW,244,4.0,13.0,68,0.00,,---,0.00,VWS V14.01,2013-03-31 22:45:00,
2013-03-31 15:50:00,63.7,53.7,30.05,WSW,246,5.0,11.0,70,0.00,,---,0.00,VWS V14.01,2013-03-31 22:50:00,
2013-03-31 15:55:00,63.2,53.3,30.05,WSW,257,5.0,11.0,70,0.00,,---,0.00,VWS V14.01,2013-03-31 22:55:00,
2013-03-31 16:00:00,62.9,53.8,30.05,SW,214,7.0,11.0,72,0.00,,---,0.00,VWS V14.01,2013-03-31 23:00:00,
2013-03-31 16:05:00,62.6,53.5,30.05,SSW,211,9.0,11.0,72,0.00,,---,0.00,VWS V14.01,2013-03-31 23:05:00,
2013-03-31 16:10:00,62.4,53.3,30.05,WSW,241,4.0,11.0,72,0.00,,---,0.00,VWS V14.01,2013-03-31 23:10:00,
2013-03-31 16:15:00,62.2,53.5,30.06,WSW,242,4.0,11.0,73,0.00,,---,0.00,VWS V14.01,2013-03-31 23:15:00,
2013-03-31 16:20:00,61.9,53.2,30.06,WSW,252,5.0,12.0,73,0.00,,---,0.00,VWS V14.01,2013-03-31 23:20:00,
2013-03-31 16:25:00,61.4,53.0,30.06,SW,234,10.0,12.0,74,0.00,,---,0.00,VWS V14.01,2013-03-31 23:25:00,
2013-03-31 16:30:00,60.9,52.6,30.06,SSW,196,10.0,12.0,74,0.00,,---,0.00,VWS V14.01,2013-03-31 23:30:00,
2013-03-31 16:35:00,60.7,52.4,30.06,West,261,6.0,12.0,74,0.00,,---,0.00,VWS V14.01,2013-03-31 23:35:00,
2013-03-31 16:40:00,60.5,52.5,30.05,SW,225,4.0,12.0,75,0.00,,---,0.00,VWS V14.01,2013-03-31 23:40:00,
2013-03-31 16:45:00,60.4,52.8,30.06,West,260,5.0,12.0,76,0.00,,---,0.00,VWS V14.01,2013-03-31 23:45:00,
2013-03-31 16:50:00,60.3,52.7,30.06,WSW,249,6.0,10.0,76,0.00,,---,0.00,VWS V14.01,2013-03-31 23:50:00,
2013-03-31 16:55:00,60.2,52.6,30.05,SSW,209,5.0,10.0,76,0.00,,---,0.00,VWS V14.01,2013-03-31 23:55:00,
2013-03-31 17:00:00,60.1,52.9,30.05,WSW,242,6.0,10.0,77,0.00,,---,0.00,VWS V14.01,2013-04-01 00:00:00,
2013-03-31 17:05:00,59.8,52.6,30.05,SW,225,9.0,9.0,77,0.00,,---,0.00,VWS V14.01,2013-04-01 00:05:00,
2013-03-31 17:10:00,59.7,52.8,30.05,SW,232,6.0,10.0,78,0.00,,---,0.00,VWS V14.01,2013-04-01 00:10:00,
2013-03-31 17:15:00,59.6,52.7,30.05,West,260,5.0,5.0,78,0.00,,---,0.00,VWS V14.01,2013-04-01 00:15:00,
2013-03-31 17:20:00,59.4,52.9,30.05,SW,225,9.0,10.0,79,0.00,,---,0.00,VWS V14.01,2013-04-01 00:20:00,
2013-03-31 17:25:00,59.3,52.8,30.05,SW,218,3.0,10.0,79,0.00,,---,0.00,VWS V14.01,2013-04-01 00:25:00,
2013-03-31 17:30:00,59.2,52.7,30.05,West,259,5.0,5.0,79,0.00,,---,0.00,VWS V14.01,2013-04-01 00:30:00,
2013-03-31 17:35:00,59.0,52.8,30.05,West,266,3.0,8.0,80,0.00,,---,0.00,VWS V14.01,2013-04-01 00:35:00,
2013-03-31 17:40:00,59.0,53.2,30.05,SSW,201,6.0,9.0,81,0.00,,---,0.00,VWS V14.01,2013-04-01 00:40:00,
2013-03-31 17:45:00,59.0,53.2,30.05,SW,230,4.0,6.0,81,0.00,,---,0.00,VWS V14.01,2013-04-01 00:45:00,
2013-03-31 17:50:00,59.0,52.8,30.05,SW,223,6.0,7.0,80,0.00,,---,0.00,VWS V14.01,2013-04-01 00:50:00,
2013-03-31 17:55:00,59.0,53.2,30.05,WSW,242,4.0,9.0,81,0.00,,---,0.00,VWS V14.01,2013-04-01 00:55:00,
2013-03-31 18:01:00,59.0,53.2,30.05,SW,219,3.0,5.0,81,0.00,,---,0.00,VWS V14.01,2013-04-01 01:01:00,
2013-03-31 18:06:00,58.8,53.0,30.05,SW,225,6.0,9.0,81,0.00,,---,0.00,VWS V14.01,2013-04-01 01:06:00,
2013-03-31 18:11:00,58.7,52.9,30.05,WSW,244,2.0,9.0,81,0.00,,---,0.00,VWS V14.01,2013-04-01 01:11:00,
2013-03-31 18:16:00,58.6,53.1,30.05,WSW,244,5.0,6.0,82,0.00,,---,0.00,VWS V14.01,2013-04-01 01:16:00,
2013-03-31 18:21:00,58.6,53.1,30.06,WSW,238,5.0,6.0,82,0.00,,---,0.00,VWS V14.01,2013-04-01 01:21:00,
2013-03-31 18:26:00,58.5,53.0,30.06,SW,233,5.0,6.0,82,0.00,,---,0.00,VWS V14.01,2013-04-01 01:26:00,
2013-03-31 18:31:00,58.4,52.9,30.06,SW,230,3.0,3.0,82,0.00,,---,0.00,VWS V14.01,2013-04-01 01:31:00,
2013-03-31 18:36:00,58.4,52.9,30.06,SW,229,4.0,7.0,82,0.00,,---,0.00,VWS V14.01,2013-04-01 01:36:00,
2013-03-31 18:41:00,58.2,52.7,30.06,SW,232,3.0,7.0,82,0.00,,---,0.00,VWS V14.01,2013-04-01 01:41:00,
2013-03-31 18:46:00,58.1,53.0,30.06,SW,215,4.0,5.0,83,0.00,,---,0.00,VWS V14.01,2013-04-01 01:46:00,
2013-03-31 18:51:00,58.0,52.9,30.06,SW,223,3.0,5.0,83,0.00,,---,0.00,VWS V14.01,2013-04-01 01:51:00,
2013-03-31 18:56:00,57.9,52.8,30.06,SW,230,4.0,5.0,83,0.00,,---,0.00,VWS V14.01,2013-04-01 01:56:00,
2013-03-31 19:01:00,57.7,52.6,30.05,SW,227,4.0,6.0,83,0.00,,---,0.00,VWS V14.01,2013-04-01 02:01:00,
2013-03-31 19:06:00,57.6,52.8,30.05,WSW,248,3.0,7.0,84,0.00,,---,0.00,VWS V14.01,2013-04-01 02:06:00,
2013-03-31 19:11:00,57.5,52.7,30.06,WSW,245,3.0,7.0,84,0.00,,---,0.00,VWS V14.01,2013-04-01 02:11:00,
2013-03-31 19:16:00,57.4,52.6,30.05,SW,215,2.0,4.0,84,0.00,,---,0.00,VWS V14.01,2013-04-01 02:16:00,
2013-03-31 19:22:00,57.3,52.5,30.06,SW,221,2.0,6.0,84,0.00,,---,0.00,VWS V14.01,2013-04-01 02:22:00,
2013-03-31 19:27:00,57.3,52.8,30.05,West,271,3.0,6.0,85,0.00,,---,0.00,VWS V14.01,2013-04-01 02:27:00,
2013-03-31 19:32:00,57.3,52.5,30.05,WSW,242,1.0,4.0,84,0.00,,---,0.00,VWS V14.01,2013-04-01 02:32:00,
2013-03-31 19:37:00,57.2,52.4,30.06,WSW,245,3.0,6.0,84,0.00,,---,0.00,VWS V14.01,2013-04-01 02:37:00,
2013-03-31 19:42:00,57.1,52.3,30.06,West,269,6.0,6.0,84,0.00,,---,0.00,VWS V14.01,2013-04-01 02:42:00,
2013-03-31 19:47:00,57.0,52.2,30.06,SW,228,2.0,6.0,84,0.00,,---,0.00,VWS V14.01,2013-04-01 02:47:00,
2013-03-31 19:52:00,56.9,52.1,30.06,WSW,256,0.0,6.0,84,0.00,,---,0.00,VWS V14.01,2013-04-01 02:52:00,
2013-03-31 19:57:00,56.9,52.4,30.06,SW,229,2.0,6.0,85,0.00,,---,0.00,VWS V14.01,2013-04-01 02:57:00,
2013-03-31 20:02:00,56.9,52.4,30.06,SW,218,4.0,4.0,85,0.00,,---,0.00,VWS V14.01,2013-04-01 03:02:00,
2013-03-31 20:07:00,56.8,52.3,30.06,SW,222,3.0,5.0,85,0.00,,---,0.00,VWS V14.01,2013-04-01 03:07:00,
2013-03-31 20:12:00,56.8,52.3,30.06,SW,222,0.0,5.0,85,0.00,,---,0.00,VWS V14.01,2013-04-01 03:12:00,
2013-03-31 20:17:00,56.9,52.4,30.06,SW,221,2.0,4.0,85,0.00,,---,0.00,VWS V14.01,2013-04-01 03:17:00,
2013-03-31 20:22:00,56.9,52.4,30.06,SW,221,0.0,4.0,85,0.00,,---,0.00,VWS V14.01,2013-04-01 03:22:00,
2013-03-31 20:27:00,56.9,52.4,30.06,West,266,3.0,5.0,85,0.00,,---,0.00,VWS V14.01,2013-04-01 03:27:00,
2013-03-31 20:32:00,56.7,51.9,30.06,SW,234,1.0,4.0,84,0.00,,---,0.00,VWS V14.01,2013-04-01 03:32:00,
2013-03-31 20:37:00,56.6,51.8,30.07,WSW,247,3.0,6.0,84,0.00,,---,0.00,VWS V14.01,2013-04-01 03:37:00,
2013-03-31 20:42:00,56.6,51.8,30.07,West,259,3.0,6.0,84,0.00,,---,0.00,VWS V14.01,2013-04-01 03:42:00,
2013-03-31 20:47:00,56.6,51.8,30.07,West,267,5.0,5.0,84,0.00,,---,0.00,VWS V14.01,2013-04-01 03:47:00,
2013-03-31 20:52:00,56.6,51.8,30.07,WSW,246,4.0,6.0,84,0.00,,---,0.00,VWS V14.01,2013-04-01 03:52:00,
2013-03-31 20:57:00,56.5,51.7,30.07,WSW,244,0.0,6.0,84,0.00,,---,0.00,VWS V14.01,2013-04-01 03:57:00,
2013-03-31 21:00:00,56.5,51.7,30.07,WSW,257,2.0,6.0,84,0.00,,---,0.00,VWS V14.01,2013-04-01 04:00:00,
2013-03-31 21:05:00,56.4,51.6,30.07,WNW,288,3.0,7.0,84,0.00,,---,0.00,VWS V14.01,2013-04-01 04:05:00,
2013-03-31 21:10:00,56.1,51.3,30.07,WNW,292,0.0,7.0,84,0.00,,---,0.00,VWS V14.01,2013-04-01 04:10:00,
2013-03-31 21:12:00,56.0,51.2,30.07,WSW,250,3.0,7.0,84,0.00,,---,0.00,VWS V14.01,2013-04-01 04:12:00,
2013-03-31 21:17:00,55.9,51.5,30.08,WSW,254,2.0,3.0,85,0.00,,---,0.00,VWS V14.01,2013-04-01 04:17:00,
2013-03-31 21:22:00,55.8,51.4,30.08,West,269,1.0,5.0,85,0.00,,---,0.00,VWS V14.01,2013-04-01 04:22:00,
2013-03-31 21:27:00,55.7,51.3,30.08,WNW,296,0.0,5.0,85,0.00,,---,0.00,VWS V14.01,2013-04-01 04:27:00,
2013-03-31 21:32:00,55.6,51.2,30.08,West,274,3.0,3.0,85,0.00,,---,0.00,VWS V14.01,2013-04-01 04:32:00,
2013-03-31 21:37:00,55.6,51.5,30.08,WSW,240,0.0,5.0,86,0.00,,---,0.00,VWS V14.01,2013-04-01 04:37:00,
2013-03-31 21:42:00,55.6,51.5,30.08,WSW,255,0.0,5.0,86,0.00,,---,0.00,VWS V14.01,2013-04-01 04:42:00,
2013-03-31 21:47:00,55.6,51.5,30.08,West,269,0.0,3.0,86,0.00,,---,0.00,VWS V14.01,2013-04-01 04:47:00,
2013-03-31 21:52:00,55.6,51.2,30.09,NW,304,0.0,4.0,85,0.00,,---,0.00,VWS V14.01,2013-04-01 04:52:00,
2013-03-31 21:57:00,55.5,51.1,30.09,WNW,296,0.0,4.0,85,0.00,,---,0.00,VWS V14.01,2013-04-01 04:57:00,
2013-03-31 22:02:00,55.6,51.5,30.09,West,270,3.0,5.0,86,0.00,,---,0.00,VWS V14.01,2013-04-01 05:02:00,
2013-03-31 22:07:00,55.6,51.5,30.09,West,268,1.0,6.0,86,0.00,,---,0.00,VWS V14.01,2013-04-01 05:07:00,
2013-03-31 22:12:00,55.6,51.5,30.09,WSW,257,3.0,6.0,86,0.00,,---,0.00,VWS V14.01,2013-04-01 05:12:00,
2013-03-31 22:17:00,55.5,51.4,30.09,WSW,257,3.0,5.0,86,0.00,,---,0.00,VWS V14.01,2013-04-01 05:17:00,
2013-03-31 22:22:00,55.4,51.6,30.09,WSW,257,1.0,5.0,87,0.00,,---,0.00,VWS V14.01,2013-04-01 05:22:00,
2013-03-31 22:27:00,55.4,51.6,30.09,WSW,246,0.0,5.0,87,0.00,,---,0.00,VWS V14.01,2013-04-01 05:27:00,
2013-03-31 22:32:00,55.3,51.5,30.09,West,269,2.0,4.0,87,0.00,,---,0.00,VWS V14.01,2013-04-01 05:32:00,
2013-03-31 22:37:00,55.2,51.4,30.09,WNW,286,0.0,4.0,87,0.00,,---,0.00,VWS V14.01,2013-04-01 05:37:00,
2013-03-31 22:42:00,55.1,51.3,30.09,West,273,0.0,4.0,87,0.00,,---,0.00,VWS V14.01,2013-04-01 05:42:00,
2013-03-31 22:47:00,55.1,51.3,30.09,West,259,2.0,3.0,87,0.00,,---,0.00,VWS V14.01,2013-04-01 05:47:00,
2013-03-31 22:52:00,55.1,51.3,30.09,West,260,1.0,4.0,87,0.00,,---,0.00,VWS V14.01,2013-04-01 05:52:00,
2013-03-31 22:57:00,55.1,51.6,30.09,West,261,0.0,4.0,88,0.00,,---,0.00,VWS V14.01,2013-04-01 05:57:00,
2013-03-31 23:02:00,55.1,51.6,30.09,West,259,0.0,2.0,88,0.00,,---,0.00,VWS V14.01,2013-04-01 06:02:00,
2013-03-31 23:07:00,55.1,51.6,30.09,West,263,2.0,5.0,88,0.00,,---,0.00,VWS V14.01,2013-04-01 06:07:00,
2013-03-31 23:12:00,55.0,51.5,30.09,West,273,0.0,5.0,88,0.00,,---,0.00,VWS V14.01,2013-04-01 06:12:00,
2013-03-31 23:17:00,55.0,51.5,30.08,NW,322,4.0,5.0,88,0.00,,---,0.00,VWS V14.01,2013-04-01 06:17:00,
2013-03-31 23:22:00,54.8,51.0,30.09,WNW,298,0.0,5.0,87,0.00,,---,0.00,VWS V14.01,2013-04-01 06:22:00,
2013-03-31 23:27:00,54.7,50.9,30.08,NW,307,2.0,5.0,87,0.00,,---,0.00,VWS V14.01,2013-04-01 06:27:00,
2013-03-31 23:32:00,54.7,50.9,30.08,WNW,284,0.0,4.0,87,0.00,,---,0.00,VWS V14.01,2013-04-01 06:32:00,
2013-03-31 23:38:00,54.6,50.8,30.08,WNW,299,3.0,5.0,87,0.00,,---,0.00,VWS V14.01,2013-04-01 06:38:00,
2013-03-31 23:43:00,54.6,50.8,30.08,NW,313,0.0,5.0,87,0.00,,---,0.00,VWS V14.01,2013-04-01 06:43:00,
2013-03-31 23:48:00,54.5,50.7,30.08,NW,307,0.0,3.0,87,0.00,,---,0.00,VWS V14.01,2013-04-01 06:48:00,
2013-03-31 23:53:00,54.5,51.0,30.08,WNW,295,0.0,5.0,88,0.00,,---,0.00,VWS V14.01,2013-04-01 06:53:00,
2013-03-31 23:58:00,54.4,50.9,30.08,WSW,255,0.0,5.0,88,0.00,,---,0.00,VWS V14.01,2013-04-01 06:58:00,